Time;durP1;ratioP1;P1;durP2;ratioP2;P2;SDS_P1;SDS_P2;PMS_P1;PMS_P2;Temp;Humidity;BMP_temperature;BMP_pressure;BME280_temperature;BME280_humidity;BME280_pressure;Samples;Min_cycle;Max_cycle;Signal;HPM_P1;HPM_P2
2023/08/12 00:00:31;;;;;;;15.45;12.30;;;;;;;20.50;100.00;101597.13;5048114;28;20036;-67
2023/08/12 00:02:56;;;;;;;14.77;13.27;;;;;;;20.49;100.00;101602.41;5046919;28;20354;-66
2023/08/12 00:05:22;;;;;;;17.08;13.02;;;;;;;20.49;100.00;101599.78;5048230;28;20529;-67
2023/08/12 00:07:48;;;;;;;16.98;12.60;;;;;;;20.50;100.00;101604.16;5044739;28;20072;-67
2023/08/12 00:10:13;;;;;;;15.13;13.55;;;;;;;20.50;100.00;101599.78;5039663;28;20028;-66
2023/08/12 00:12:39;;;;;;;14.40;13.05;;;;;;;20.49;100.00;101605.03;5042766;28;20026;-66
2023/08/12 00:15:07;;;;;;;14.93;12.85;;;;;;;20.48;100.00;101598.88;5039581;28;20024;-66
2023/08/12 00:17:33;;;;;;;15.40;13.27;;;;;;;20.47;100.00;101599.75;5048107;28;20020;-66
2023/08/12 00:19:59;;;;;;;15.98;13.15;;;;;;;20.47;100.00;101598.88;5048056;28;20029;-67
2023/08/12 00:22:25;;;;;;;14.70;13.13;;;;;;;20.47;100.00;101594.47;5034489;28;20100;-66
2023/08/12 00:24:51;;;;;;;15.57;13.05;;;;;;;20.48;100.00;101587.47;5047515;28;20033;-67
2023/08/12 00:27:17;;;;;;;16.65;13.55;;;;;;;20.51;100.00;101584.84;5034710;28;20393;-66
2023/08/12 00:29:42;;;;;;;15.05;13.18;;;;;;;20.49;100.00;101581.34;5040864;28;20516;-67
2023/08/12 00:32:09;;;;;;;14.52;13.00;;;;;;;20.49;100.00;101581.34;5047649;28;20159;-66
2023/08/12 00:34:34;;;;;;;15.20;13.30;;;;;;;20.50;100.00;101583.09;5034407;28;20037;-67
2023/08/12 00:36:59;;;;;;;14.40;12.75;;;;;;;20.49;100.00;101576.09;5047075;28;20033;-67
2023/08/12 00:39:24;;;;;;;16.20;13.40;;;;;;;20.48;100.00;101569.03;5047674;28;20025;-67
2023/08/12 00:41:50;;;;;;;14.98;13.35;;;;;;;20.46;100.00;101565.53;5047381;28;20043;-66
2023/08/12 00:44:15;;;;;;;13.55;12.25;;;;;;;20.45;100.00;101564.66;5048055;28;20104;-67
2023/08/12 00:46:42;;;;;;;15.88;13.00;;;;;;;20.43;100.00;101565.53;5046942;28;20033;-66
2023/08/12 00:49:08;;;;;;;18.58;13.80;;;;;;;20.42;100.00;101561.16;5047828;28;20029;-67
2023/08/12 00:51:34;;;;;;;14.80;13.23;;;;;;;20.40;100.00;101561.13;5047024;28;20029;-66
2023/08/12 00:54:04;;;;;;;15.82;13.95;;;;;;;20.39;100.00;101555.00;5047345;28;20388;-66
2023/08/12 00:56:31;;;;;;;17.25;13.50;;;;;;;20.37;100.00;101554.13;5046872;28;20025;-67
2023/08/12 00:59:01;;;;;;;19.30;15.05;;;;;;;20.34;100.00;101562.00;5047516;28;20025;-66
2023/08/12 01:01:26;;;;;;;17.95;15.15;;;;;;;20.33;100.00;101544.44;5047135;28;20024;-67
2023/08/12 01:03:52;;;;;;;17.13;13.93;;;;;;;20.31;100.00;101543.56;5047677;28;20381;-66
2023/08/12 01:06:17;;;;;;;15.95;14.25;;;;;;;20.31;100.00;101550.59;5042237;28;20104;-66
2023/08/12 01:08:42;;;;;;;16.48;14.70;;;;;;;20.25;100.00;101546.19;5038288;28;20025;-66
2023/08/12 01:11:36;;;;;;;19.48;15.73;;;;;;;20.22;100.00;101540.94;5047601;28;20017;-66
2023/08/12 01:14:13;;;;;;;21.05;16.83;;;;;;;20.22;100.00;101539.16;5046907;28;20029;-67
2023/08/12 01:16:43;;;;;;;21.10;15.95;;;;;;;20.20;100.00;101534.78;5047706;28;20024;-67
2023/08/12 01:19:16;;;;;;;17.92;16.08;;;;;;;20.17;100.00;101530.38;5046484;28;20069;-66
2023/08/12 01:21:44;;;;;;;19.80;16.65;;;;;;;20.19;100.00;101530.38;5047777;28;20078;-67
2023/08/12 01:24:09;;;;;;;20.27;17.05;;;;;;;20.14;100.00;101518.09;5046565;28;20022;-67
2023/08/12 01:26:34;;;;;;;19.30;17.33;;;;;;;20.14;100.00;101523.38;5047145;28;20048;-67
2023/08/12 01:29:00;;;;;;;18.85;16.85;;;;;;;20.11;100.00;101510.19;5050412;28;20167;-67
2023/08/12 01:31:45;;;;;;;19.08;16.90;;;;;;;20.10;100.00;101511.06;5040972;28;20032;-67
2023/08/12 01:34:15;;;;;;;17.58;15.80;;;;;;;20.10;100.00;101513.69;5042482;28;20029;-66
2023/08/12 01:36:46;;;;;;;19.80;17.08;;;;;;;20.09;100.00;101506.69;5050624;28;20043;-66
2023/08/12 01:39:11;;;;;;;18.30;16.05;;;;;;;20.10;100.00;101504.94;5037862;28;20036;-66
2023/08/12 01:41:37;;;;;;;17.92;16.10;;;;;;;20.07;100.00;101500.56;5050113;28;20029;-66
2023/08/12 01:44:03;;;;;;;19.40;16.35;;;;;;;20.06;100.00;101504.03;5050871;28;20043;-66
2023/08/12 01:46:29;;;;;;;17.38;15.55;;;;;;;20.06;100.00;101503.19;5047481;28;20377;-67
2023/08/12 01:48:54;;;;;;;17.02;15.30;;;;;;;20.07;100.00;101499.66;5040017;28;20053;-66
2023/08/12 01:51:19;;;;;;;17.80;16.00;;;;;;;20.08;100.00;101507.56;5049843;28;20057;-66
2023/08/12 01:53:45;;;;;;;18.98;15.43;;;;;;;20.09;100.00;101504.06;5050403;28;20516;-66
2023/08/12 01:56:10;;;;;;;17.50;15.73;;;;;;;20.07;100.00;101502.28;5049521;28;20033;-66
2023/08/12 01:58:35;;;;;;;19.63;15.20;;;;;;;20.04;100.00;101496.13;5050228;28;20028;-66
2023/08/12 02:01:00;;;;;;;16.48;14.60;;;;;;;20.01;100.00;101489.97;5050255;28;20508;-66
2023/08/12 02:03:26;;;;;;;15.10;13.55;;;;;;;20.00;100.00;101486.44;5050060;28;20025;-67
2023/08/12 02:05:51;;;;;;;16.17;13.80;;;;;;;19.96;100.00;101495.22;5050653;28;20040;-67
2023/08/12 02:08:17;;;;;;;18.70;13.57;;;;;;;19.96;100.00;101491.72;5049630;28;20032;-67
2023/08/12 02:10:42;;;;;;;16.55;13.18;;;;;;;19.91;100.00;101489.94;5049808;28;20032;-66
2023/08/12 02:13:07;;;;;;;16.88;13.20;;;;;;;19.90;100.00;101488.19;5049940;28;20029;-67
2023/08/12 02:15:32;;;;;;;16.10;13.18;;;;;;;19.90;100.00;101487.31;5050414;28;20094;-67
2023/08/12 02:17:58;;;;;;;13.73;12.35;;;;;;;19.89;100.00;101491.72;5049145;28;20035;-67
2023/08/12 02:20:24;;;;;;;15.15;10.88;;;;;;;19.86;100.00;101486.41;5050589;28;20040;-67
2023/08/12 02:22:49;;;;;;;14.23;11.10;;;;;;;19.87;100.00;101479.41;5049599;28;20142;-67
2023/08/12 02:25:15;;;;;;;14.75;10.32;;;;;;;19.86;100.00;101475.91;5050125;28;20029;-66
2023/08/12 02:27:41;;;;;;;15.40;10.68;;;;;;;19.84;100.00;101482.91;5049992;28;20104;-67
2023/08/12 02:30:06;;;;;;;11.07;9.98;;;;;;;19.84;100.00;101477.63;5050417;28;20029;-66
2023/08/12 02:32:32;;;;;;;12.25;10.30;;;;;;;19.83;100.00;101470.63;5049370;28;20029;-67
2023/08/12 02:34:57;;;;;;;12.68;10.27;;;;;;;19.83;100.00;101470.63;5049358;28;20032;-66
2023/08/12 02:37:22;;;;;;;13.60;9.45;;;;;;;19.83;100.00;101460.13;5049485;28;20469;-67
2023/08/12 02:39:48;;;;;;;11.93;9.70;;;;;;;19.82;100.00;101461.00;5048267;28;20037;-66
2023/08/12 02:42:13;;;;;;;15.65;9.27;;;;;;;19.82;100.00;101458.38;5049013;28;20382;-66
2023/08/12 02:44:38;;;;;;;11.48;9.98;;;;;;;19.81;100.00;101451.34;5049519;28;20090;-66
2023/08/12 02:47:04;;;;;;;16.80;9.95;;;;;;;19.82;100.00;101452.22;5048221;28;20025;-67
2023/08/12 02:49:29;;;;;;;15.05;9.52;;;;;;;19.84;100.00;101448.72;5049560;28;20041;-67
2023/08/12 02:51:54;;;;;;;11.38;9.80;;;;;;;19.81;100.00;101440.81;5036451;28;20071;-66
2023/08/12 02:54:19;;;;;;;14.25;10.15;;;;;;;19.79;100.00;101442.56;5049116;28;20090;-66
2023/08/12 02:56:45;;;;;;;12.40;10.15;;;;;;;19.77;100.00;101439.94;5048821;28;20041;-67
2023/08/12 02:59:10;;;;;;;11.23;9.98;;;;;;;19.75;100.00;101435.56;5049252;28;20477;-66
2023/08/12 03:01:35;;;;;;;10.55;9.45;;;;;;;19.74;100.00;101434.69;5048804;28;20104;-66
2023/08/12 03:04:00;;;;;;;12.20;9.50;;;;;;;19.72;100.00;101435.53;5048918;28;20025;-67
2023/08/12 03:06:26;;;;;;;12.05;9.45;;;;;;;19.71;100.00;101442.56;5043309;28;20043;-67
2023/08/12 03:08:51;;;;;;;12.82;9.63;;;;;;;19.67;100.00;101436.41;5041034;28;20037;-66
2023/08/12 03:11:18;;;;;;;13.88;9.77;;;;;;;19.68;100.00;101426.75;5048703;28;20021;-67
2023/08/12 03:13:43;;;;;;;10.32;8.82;;;;;;;19.64;100.00;101427.63;5049152;28;20033;-67
2023/08/12 03:16:13;;;;;;;12.60;9.15;;;;;;;19.64;100.00;101431.16;5048372;28;20082;-67
2023/08/12 03:18:39;;;;;;;8.77;6.55;;;;;;;19.62;100.00;101422.38;5048084;28;20079;-66
2023/08/12 03:21:08;;;;;;;10.43;8.52;;;;;;;19.61;100.00;101427.63;5048400;28;20040;-66
2023/08/12 03:23:37;;;;;;;10.25;8.50;;;;;;;19.60;100.00;101421.50;5035169;28;20874;-66
2023/08/12 03:26:03;;;;;;;11.73;8.38;;;;;;;19.58;100.00;101423.22;5048715;28;20109;-67
2023/08/12 03:28:28;;;;;;;9.00;8.07;;;;;;;19.59;100.00;101417.09;5048893;28;20104;-67
2023/08/12 03:30:54;;;;;;;9.80;8.05;;;;;;;19.61;100.00;101407.47;5048714;28;20051;-66
2023/08/12 03:33:19;;;;;;;14.05;8.18;;;;;;;19.60;100.00;101405.72;5048468;28;20083;-66
2023/08/12 03:35:48;;;;;;;9.35;7.30;;;;;;;19.58;100.00;101401.31;5048316;28;20025;-66
2023/08/12 03:38:14;;;;;;;10.90;8.00;;;;;;;19.56;100.00;101406.56;5041688;28;20465;-66
2023/08/12 03:40:40;;;;;;;12.60;8.20;;;;;;;19.54;100.00;101400.44;5047442;28;20035;-66
2023/08/12 03:43:05;;;;;;;11.85;7.85;;;;;;;19.51;100.00;101396.06;5041167;28;20041;-67
2023/08/12 03:45:31;;;;;;;10.65;7.70;;;;;;;19.51;100.00;101400.44;5047164;28;20040;-67
2023/08/12 03:47:56;;;;;;;10.27;7.30;;;;;;;19.42;100.00;101396.03;5047469;28;20039;-66
2023/08/12 03:50:21;;;;;;;9.27;6.07;;;;;;;19.41;100.00;101394.28;5048174;28;20019;-67
2023/08/12 03:52:47;;;;;;;8.02;5.63;;;;;;;19.36;100.00;101393.34;5041653;28;20024;-67
2023/08/12 03:55:12;;;;;;;9.98;5.85;;;;;;;19.34;100.00;101395.97;5048209;28;20079;-67
2023/08/12 03:57:37;;;;;;;9.35;5.82;;;;;;;19.30;100.00;101384.56;5040262;28;20492;-66
2023/08/12 04:00:04;;;;;;;7.85;5.43;;;;;;;19.30;100.00;101386.34;5047909;28;20029;-67
2023/08/12 04:02:29;;;;;;;8.50;5.47;;;;;;;19.28;100.00;101382.84;5040174;28;20032;-66
2023/08/12 04:04:54;;;;;;;11.60;6.45;;;;;;;19.26;100.00;101384.56;5041805;28;20029;-66
2023/08/12 04:07:20;;;;;;;6.57;5.43;;;;;;;19.23;100.00;101374.91;5047611;28;20414;-67
2023/08/12 04:09:45;;;;;;;5.95;5.28;;;;;;;19.23;100.00;101382.78;5047640;28;20116;-67
2023/08/12 04:12:10;;;;;;;10.15;6.07;;;;;;;19.19;100.00;101383.66;5047610;28;20025;-66
2023/08/12 04:14:36;;;;;;;8.85;5.72;;;;;;;19.20;100.00;101380.16;5047317;28;20365;-66
2023/08/12 04:17:01;;;;;;;8.48;6.15;;;;;;;19.21;100.00;101376.69;5047938;28;20108;-66
2023/08/12 04:19:26;;;;;;;6.50;5.03;;;;;;;19.20;100.00;101365.28;5046223;28;20589;-66
2023/08/12 04:21:52;;;;;;;7.00;5.20;;;;;;;19.23;100.00;101358.31;5042053;28;20476;-67
2023/08/12 04:24:17;;;;;;;6.28;5.63;;;;;;;19.20;100.00;101354.78;5046451;28;20025;-66
2023/08/12 04:26:42;;;;;;;10.05;7.32;;;;;;;19.20;100.00;101360.03;5047776;28;20392;-66
2023/08/12 04:29:07;;;;;;;11.65;7.72;;;;;;;19.23;100.00;101363.56;5047194;28;20020;-67
2023/08/12 04:31:33;;;;;;;8.25;7.45;;;;;;;19.24;100.00;101365.28;5038990;28;20029;-66
2023/08/12 04:33:58;;;;;;;7.93;7.15;;;;;;;19.27;100.00;101367.94;5039162;28;20033;-66
2023/08/12 04:36:24;;;;;;;13.90;7.63;;;;;;;19.25;100.00;101365.28;5031802;28;20020;-67
2023/08/12 04:38:49;;;;;;;8.73;7.00;;;;;;;19.27;100.00;101373.19;5041292;28;20075;-67
2023/08/12 04:41:15;;;;;;;11.63;8.00;;;;;;;19.25;100.00;101372.31;5037528;28;20052;-66
2023/08/12 04:43:40;;;;;;;11.45;7.85;;;;;;;19.22;100.00;101372.28;5045698;28;20021;-67
2023/08/12 04:46:06;;;;;;;12.15;9.27;;;;;;;19.16;100.00;101373.13;5047125;28;20025;-67
2023/08/12 04:48:31;;;;;;;10.73;8.25;;;;;;;19.12;100.00;101361.75;5046850;28;20566;-66
2023/08/12 04:51:00;;;;;;;11.73;8.48;;;;;;;19.07;100.00;101347.66;5046330;28;20029;-66
2023/08/12 04:53:25;;;;;;;12.77;8.15;;;;;;;19.06;100.00;101349.44;5045350;28;20032;-66
2023/08/12 04:55:51;;;;;;;12.75;8.85;;;;;;;19.06;100.00;101359.94;5045963;28;20051;-67
2023/08/12 04:58:17;;;;;;;12.15;9.10;;;;;;;19.01;100.00;101363.41;5049788;28;20017;-66
2023/08/12 05:00:42;;;;;;;13.18;9.10;;;;;;;18.98;100.00;101359.00;5051643;28;20062;-67
2023/08/12 05:03:07;;;;;;;14.25;9.60;;;;;;;18.94;100.00;101346.75;5051736;28;20024;-66
2023/08/12 05:05:32;;;;;;;10.23;8.90;;;;;;;18.90;100.00;101340.63;5051307;28;20021;-67
2023/08/12 05:07:58;;;;;;;13.43;9.43;;;;;;;18.89;100.00;101338.84;5050204;28;20029;-66
2023/08/12 05:10:23;;;;;;;12.35;9.57;;;;;;;18.87;100.00;101324.81;5038452;28;20029;-66
2023/08/12 05:12:50;;;;;;;14.45;9.63;;;;;;;18.84;100.00;101330.06;5048892;28;20078;-67
2023/08/12 05:15:15;;;;;;;10.85;9.63;;;;;;;18.81;100.00;101325.69;5051267;28;20067;-67
2023/08/12 05:17:41;;;;;;;12.55;9.55;;;;;;;18.81;100.00;101330.06;5049733;28;20025;-66
2023/08/12 05:20:07;;;;;;;12.20;9.43;;;;;;;18.81;100.00;101316.94;5049724;28;20490;-67
2023/08/12 05:22:32;;;;;;;9.93;8.93;;;;;;;18.82;100.00;101316.03;5049022;28;20060;-67
2023/08/12 05:24:57;;;;;;;11.25;9.93;;;;;;;18.80;100.00;101320.41;5049409;28;20473;-66
2023/08/12 05:27:23;;;;;;;9.85;8.90;;;;;;;18.79;100.00;101332.69;5049075;28;20036;-66
2023/08/12 05:29:48;;;;;;;10.10;8.55;;;;;;;18.81;100.00;101333.56;5048795;28;20580;-67
2023/08/12 05:32:13;;;;;;;9.63;8.52;;;;;;;18.81;100.00;101301.19;5049309;28;20168;-67
2023/08/12 05:34:38;;;;;;;9.77;8.75;;;;;;;18.82;100.00;101316.03;5050361;28;20036;-67
2023/08/12 05:37:04;;;;;;;9.75;7.50;;;;;;;18.82;100.00;101327.44;5043158;28;20487;-67
2023/08/12 05:39:29;;;;;;;12.00;8.00;;;;;;;18.78;100.00;101319.53;5050721;28;20388;-67
2023/08/12 05:41:54;;;;;;;8.80;7.43;;;;;;;18.77;100.00;101317.78;5048525;28;20032;-67
2023/08/12 05:44:20;;;;;;;7.90;7.10;;;;;;;18.78;100.00;101324.81;5049532;28;20032;-67
2023/08/12 05:46:45;;;;;;;9.45;7.25;;;;;;;18.78;100.00;101322.16;5050123;28;20025;-67
2023/08/12 05:49:11;;;;;;;7.55;6.75;;;;;;;18.76;100.00;101323.91;5050788;28;20017;-67
2023/08/12 05:51:38;;;;;;;7.75;6.85;;;;;;;18.72;100.00;101323.91;5050289;28;20512;-66
2023/08/12 05:54:03;;;;;;;9.63;6.75;;;;;;;18.70;100.00;101320.38;5050200;28;20499;-66
2023/08/12 05:56:29;;;;;;;7.95;6.50;;;;;;;18.71;100.00;101310.75;5049730;28;20056;-67
2023/08/12 05:58:54;;;;;;;7.75;6.07;;;;;;;18.71;100.00;101309.00;5049611;28;20025;-67
2023/08/12 06:01:19;;;;;;;8.43;6.55;;;;;;;18.74;100.00;101307.28;5036561;28;20363;-67
2023/08/12 06:03:44;;;;;;;7.47;6.65;;;;;;;18.73;100.00;101311.63;5047708;28;20057;-67
2023/08/12 06:06:10;;;;;;;7.07;6.38;;;;;;;18.74;100.00;101307.28;5043666;28;20482;-66
2023/08/12 06:08:35;;;;;;;6.45;5.85;;;;;;;18.74;100.00;101304.66;5045862;28;20035;-67
2023/08/12 06:11:00;;;;;;;7.28;6.10;;;;;;;18.77;100.00;101309.91;5047137;28;20029;-67
2023/08/12 06:13:26;;;;;;;6.93;6.22;;;;;;;18.80;100.00;101304.66;5047411;28;20029;-67
2023/08/12 06:15:51;;;;;;;6.95;6.30;;;;;;;18.79;100.00;101308.16;5047760;28;20108;-67
2023/08/12 06:18:16;;;;;;;6.45;5.80;;;;;;;18.76;100.00;101308.16;5046882;28;20021;-67
2023/08/12 06:20:42;;;;;;;7.80;6.15;;;;;;;18.78;100.00;101295.94;5040719;28;20479;-67
2023/08/12 06:23:07;;;;;;;6.53;6.00;;;;;;;18.74;100.00;101297.66;5047108;28;20052;-67
2023/08/12 06:25:32;;;;;;;6.97;6.38;;;;;;;18.73;100.00;101290.63;5046891;28;20400;-67
2023/08/12 06:27:58;;;;;;;7.13;6.20;;;;;;;18.66;100.00;101287.09;5046375;28;20040;-66
2023/08/12 06:30:23;;;;;;;7.60;5.63;;;;;;;18.69;100.00;101284.50;5046733;28;20399;-67
2023/08/12 06:32:49;;;;;;;7.03;6.32;;;;;;;18.76;100.00;101279.28;5044502;28;20037;-67
2023/08/12 06:35:14;;;;;;;6.05;5.55;;;;;;;18.77;100.00;101279.28;5047402;28;20024;-67
2023/08/12 06:37:40;;;;;;;7.07;6.10;;;;;;;18.81;100.00;101278.44;5046310;28;20052;-67
2023/08/12 06:40:06;;;;;;;6.53;5.85;;;;;;;18.83;100.00;101279.31;5046522;28;20055;-67
2023/08/12 06:42:31;;;;;;;7.15;5.82;;;;;;;18.82;100.00;101268.78;5046765;28;20419;-67
2023/08/12 06:44:57;;;;;;;6.07;5.45;;;;;;;18.86;100.00;101280.19;5045980;28;20025;-67
2023/08/12 06:47:23;;;;;;;5.82;5.32;;;;;;;18.89;100.00;101274.97;5046253;28;20029;-66
2023/08/12 06:49:48;;;;;;;6.75;5.05;;;;;;;18.87;100.00;101269.69;5032847;28;20516;-67
2023/08/12 06:52:15;;;;;;;5.20;4.80;;;;;;;18.84;100.00;101261.81;5044290;28;20040;-66
2023/08/12 06:54:41;;;;;;;5.53;5.03;;;;;;;18.86;100.00;101264.44;5047350;28;20428;-67
2023/08/12 06:57:06;;;;;;;7.72;5.47;;;;;;;18.86;100.00;101267.94;5046379;28;20029;-67
2023/08/12 06:59:31;;;;;;;5.65;4.90;;;;;;;18.87;100.00;101261.81;5037538;28;20017;-67
2023/08/12 07:01:57;;;;;;;5.22;4.80;;;;;;;18.89;100.00;101253.97;5042259;28;20021;-67
2023/08/12 07:04:22;;;;;;;5.53;5.10;;;;;;;18.92;100.00;101254.88;5046128;28;20032;-67
2023/08/12 07:06:47;;;;;;;4.70;4.30;;;;;;;18.96;100.00;101256.59;5046764;28;20024;-67
2023/08/12 07:09:13;;;;;;;4.38;3.97;;;;;;;18.98;100.00;101258.38;5046263;28;20083;-67
2023/08/12 07:11:38;;;;;;;4.20;3.90;;;;;;;19.03;100.00;101259.28;5046126;28;20028;-67
2023/08/12 07:14:04;;;;;;;5.65;5.07;;;;;;;19.06;100.00;101259.28;5037118;28;20527;-67
2023/08/12 07:16:29;;;;;;;4.97;4.57;;;;;;;19.06;100.00;101261.91;5044594;28;20037;-67
2023/08/12 07:18:54;;;;;;;4.70;4.30;;;;;;;19.08;100.00;101252.28;5045875;28;20066;-67
2023/08/12 07:21:19;;;;;;;5.00;4.60;;;;;;;19.07;100.00;101253.13;5040909;28;20039;-67
2023/08/12 07:23:45;;;;;;;5.32;4.90;;;;;;;19.06;100.00;101257.53;5044119;28;20404;-67
2023/08/12 07:26:10;;;;;;;5.25;4.75;;;;;;;19.10;100.00;101260.16;5040360;28;20044;-67
2023/08/12 07:28:35;;;;;;;5.75;5.25;;;;;;;19.11;100.00;101262.78;5037919;28;20058;-67
2023/08/12 07:31:01;;;;;;;6.15;5.65;;;;;;;19.06;100.00;101251.38;5044068;28;20036;-67
2023/08/12 07:33:27;;;;;;;5.97;5.50;;;;;;;19.11;100.00;101254.03;5045772;28;20040;-67
2023/08/12 07:35:52;;;;;;;6.53;6.05;;;;;;;19.10;100.00;101258.41;5042980;28;20025;-67
2023/08/12 07:38:17;;;;;;;7.13;6.28;;;;;;;19.12;100.00;101251.47;5048467;28;20500;-67
2023/08/12 07:40:43;;;;;;;7.45;6.93;;;;;;;19.14;100.00;101256.72;5048332;28;20484;-67
2023/08/12 07:43:08;;;;;;;5.75;5.35;;;;;;;19.11;100.00;101254.91;5035522;28;20052;-67
2023/08/12 07:45:33;;;;;;;6.60;6.10;;;;;;;19.12;100.00;101267.22;5048115;28;20029;-67
2023/08/12 07:47:59;;;;;;;6.22;5.72;;;;;;;19.16;100.00;101252.31;5048142;28;20032;-67
2023/08/12 07:50:24;;;;;;;6.20;5.60;;;;;;;19.19;100.00;101247.94;5048420;28;20024;-67
2023/08/12 07:52:50;;;;;;;5.97;5.50;;;;;;;19.18;100.00;101245.31;5048361;28;20086;-67
2023/08/12 07:55:15;;;;;;;6.18;5.70;;;;;;;19.23;100.00;101250.59;5045661;28;20028;-67
2023/08/12 07:57:41;;;;;;;5.55;5.03;;;;;;;19.26;100.00;101242.72;5041286;28;20078;-67
2023/08/12 08:00:07;;;;;;;5.00;4.60;;;;;;;19.26;100.00;101242.72;5048502;28;20031;-67
2023/08/12 08:02:33;;;;;;;5.35;4.97;;;;;;;19.31;100.00;101248.84;5047656;28;20481;-67
2023/08/12 08:04:58;;;;;;;5.68;5.18;;;;;;;19.38;100.00;101253.25;5048317;28;20036;-67
2023/08/12 08:07:23;;;;;;;4.90;4.40;;;;;;;19.41;100.00;101255.88;5035130;28;20113;-67
2023/08/12 08:09:51;;;;;;;4.65;4.25;;;;;;;19.43;100.00;101262.00;5047362;28;20078;-67
2023/08/12 08:12:16;;;;;;;4.40;3.95;;;;;;;19.52;100.00;101270.78;5034452;28;20045;-67
2023/08/12 08:14:42;;;;;;;3.75;3.15;;;;;;;19.55;100.00;101269.03;5048053;28;20048;-67
2023/08/12 08:17:07;;;;;;;3.65;3.35;;;;;;;19.63;100.00;101269.06;5042503;28;20313;-67
2023/08/12 08:19:32;;;;;;;3.35;3.08;;;;;;;19.63;100.00;101271.69;5045150;28;20020;-67
2023/08/12 08:21:58;;;;;;;3.25;2.95;;;;;;;19.62;100.00;101277.81;5043255;28;20029;-67
2023/08/12 08:24:23;;;;;;;3.67;2.85;;;;;;;19.66;100.00;101274.28;5047340;28;20032;-67
2023/08/12 08:26:49;;;;;;;5.53;2.90;;;;;;;19.72;100.00;101276.06;5048093;28;20051;-67
2023/08/12 08:29:14;;;;;;;3.25;3.05;;;;;;;19.76;100.00;101276.94;5030087;28;20025;-67
2023/08/12 08:31:39;;;;;;;2.92;2.60;;;;;;;19.80;100.00;101273.44;5041873;28;20025;-67
2023/08/12 08:34:05;;;;;;;3.95;3.25;;;;;;;19.80;100.00;101271.72;5040694;28;20025;-67
2023/08/12 08:36:31;;;;;;;3.03;2.83;;;;;;;19.84;100.00;101274.31;5046649;28;20493;-68
2023/08/12 08:38:56;;;;;;;3.20;3.00;;;;;;;19.92;100.00;101278.72;5041590;28;20037;-67
2023/08/12 08:41:21;;;;;;;4.13;3.83;;;;;;;20.02;100.00;101281.34;5047623;28;20025;-67
2023/08/12 08:43:48;;;;;;;4.97;4.57;;;;;;;20.18;100.00;101274.34;5042415;28;20485;-68
2023/08/12 08:46:15;;;;;;;5.00;4.70;;;;;;;20.32;100.00;101279.56;5047947;28;20052;-67
2023/08/12 08:48:42;;;;;;;5.03;4.70;;;;;;;20.44;100.00;101288.31;5046683;28;20027;-67
2023/08/12 08:51:09;;;;;;;5.35;4.93;;;;;;;20.56;100.00;101292.69;5048366;28;20167;-67
2023/08/12 08:53:39;;;;;;;6.25;5.82;;;;;;;20.61;100.00;101297.06;5042696;28;20453;-67
2023/08/12 08:56:06;;;;;;;6.20;5.80;;;;;;;20.62;100.00;101300.56;5043327;28;20474;-67
2023/08/12 08:58:31;;;;;;;7.60;7.10;;;;;;;20.63;100.00;101295.28;5036655;28;20071;-67
2023/08/12 09:00:57;;;;;;;7.55;7.05;;;;;;;20.64;100.00;101297.03;5047245;28;20028;-67
2023/08/12 09:03:22;;;;;;;8.82;8.15;;;;;;;20.64;100.00;101297.03;5046649;28;20032;-67
2023/08/12 09:05:48;;;;;;;9.18;8.48;;;;;;;20.72;100.00;101286.47;5046784;28;20032;-67
2023/08/12 09:08:14;;;;;;;9.13;8.52;;;;;;;20.80;100.00;101299.63;5038076;28;20025;-67
2023/08/12 09:10:40;;;;;;;9.85;9.15;;;;;;;20.81;100.00;101298.75;5047323;28;20465;-67
2023/08/12 09:13:06;;;;;;;10.02;9.43;;;;;;;20.85;100.00;101303.09;5039823;28;20053;-68
2023/08/12 09:15:32;;;;;;;9.23;8.63;;;;;;;20.84;100.00;101308.38;5045336;28;20052;-68
2023/08/12 09:17:57;;;;;;;8.65;8.15;;;;;;;20.76;100.00;101305.78;5046756;28;20504;-67
2023/08/12 09:20:23;;;;;;;8.98;8.35;;;;;;;20.70;100.00;101313.69;5047142;28;20075;-67
2023/08/12 09:22:57;;;;;;;8.88;8.18;;;;;;;20.58;100.00;101318.09;5046222;28;20037;-67
2023/08/12 09:25:23;;;;;;;7.80;7.15;;;;;;;20.49;100.00;101326.03;5045135;28;20119;-67
2023/08/12 09:27:48;;;;;;;6.28;5.88;;;;;;;20.46;100.00;101333.94;5047404;28;20112;-67
2023/08/12 09:30:14;;;;;;;6.30;5.90;;;;;;;20.49;100.00;101341.84;5047047;28;20676;-68
2023/08/12 09:32:39;;;;;;;6.32;5.82;;;;;;;20.54;100.00;101340.06;5039795;28;20028;-67
2023/08/12 09:35:05;;;;;;;5.90;5.50;;;;;;;20.62;100.00;101333.03;5047475;28;20045;-67
2023/08/12 09:37:31;;;;;;;4.15;3.92;;;;;;;20.64;100.00;101339.16;5047266;28;20099;-67
2023/08/12 09:39:57;;;;;;;3.90;3.70;;;;;;;20.65;100.00;101334.78;5046334;28;20103;-67
2023/08/12 09:42:24;;;;;;;4.20;3.80;;;;;;;20.67;100.00;101342.69;5047239;28;20028;-68
2023/08/12 09:44:49;;;;;;;4.45;4.15;;;;;;;20.76;100.00;101343.50;5037298;28;20108;-67
2023/08/12 09:47:14;;;;;;;3.65;3.33;;;;;;;20.72;100.00;101335.63;5050461;28;20029;-67
2023/08/12 09:49:40;;;;;;;3.45;3.13;;;;;;;20.72;100.00;101339.13;5050204;28;20052;-67
2023/08/12 09:52:07;;;;;;;3.03;2.80;;;;;;;20.70;100.00;101337.41;5050748;28;20029;-67
2023/08/12 09:54:33;;;;;;;2.92;2.72;;;;;;;20.72;100.00;101341.75;5050186;28;20037;-67
2023/08/12 09:57:00;;;;;;;2.95;2.75;;;;;;;20.80;100.00;101341.75;5045879;28;20031;-67
2023/08/12 09:59:36;;;;;;;3.35;2.65;;;;;;;20.87;100.00;101343.50;5047041;28;20112;-67
2023/08/12 10:02:09;;;;;;;2.65;2.55;;;;;;;20.90;100.00;101347.00;5050470;28;20107;-67
2023/08/12 10:04:41;;;;;;;2.88;2.67;;;;;;;20.76;100.00;101347.91;5045970;28;20079;-67
2023/08/12 10:07:09;;;;;;;2.05;1.95;;;;;;;20.79;100.00;101352.28;5035623;28;20037;-67
2023/08/12 10:09:35;;;;;;;1.80;1.70;;;;;;;20.82;100.00;101347.91;5045090;28;20018;-67
2023/08/12 10:12:01;;;;;;;2.42;1.90;;;;;;;20.99;100.00;101355.75;5043385;28;20035;-67
2023/08/12 10:14:28;;;;;;;1.45;1.17;;;;;;;21.13;100.00;101359.22;5050521;28;20100;-68
2023/08/12 10:16:54;;;;;;;1.52;1.35;;;;;;;21.26;100.00;101357.44;5050137;28;20404;-67
2023/08/12 10:19:21;;;;;;;1.10;1.00;;;;;;;21.28;100.00;101356.53;5049953;28;20021;-67
2023/08/12 10:21:53;;;;;;;2.15;1.08;;;;;;;21.21;100.00;101366.22;5050248;28;20032;-67
2023/08/12 10:24:18;;;;;;;1.80;1.27;;;;;;;21.21;100.00;101362.69;5049071;28;20125;-67
2023/08/12 10:26:44;;;;;;;1.63;1.33;;;;;;;21.17;100.00;101364.50;5049548;28;20037;-67
2023/08/12 10:29:11;;;;;;;1.75;1.23;;;;;;;21.28;100.00;101361.78;5043199;28;20029;-67
2023/08/12 10:31:38;;;;;;;4.38;1.35;;;;;;;21.43;100.00;101367.88;5045624;28;20032;-67
2023/08/12 10:34:04;;;;;;;2.95;1.08;;;;;;;21.46;100.00;101360.81;5049319;28;20032;-67
2023/08/12 10:36:31;;;;;;;2.75;1.30;;;;;;;21.46;100.00;101350.28;5049691;28;20028;-67
2023/08/12 10:38:57;;;;;;;4.72;1.40;;;;;;;21.44;100.00;101345.91;5049011;28;20025;-67
2023/08/12 10:41:24;;;;;;;3.17;1.50;;;;;;;21.35;100.00;101345.06;5049765;28;20496;-67
2023/08/12 10:43:58;;;;;;;4.70;1.80;;;;;;;21.30;100.00;101349.50;5049109;28;20332;-67
2023/08/12 10:46:29;;;;;;;4.22;1.80;;;;;;;21.30;100.00;101360.03;5048908;28;20083;-67
2023/08/12 10:49:07;;;;;;;2.08;1.33;;;;;;;21.29;100.00;101355.66;5049527;28;20029;-67
2023/08/12 10:51:49;;;;;;;2.53;1.17;;;;;;;21.29;100.00;101358.28;5048843;28;20056;-67
2023/08/12 10:54:17;;;;;;;2.92;1.33;;;;;;;21.33;100.00;101356.50;5048397;28;20055;-67
2023/08/12 10:57:01;;;;;;;4.85;1.60;;;;;;;21.26;100.00;101358.31;5049377;28;20461;-67
2023/08/12 10:59:44;;;;;;;4.80;1.70;;;;;;;21.34;100.00;101361.78;5049032;28;20082;-67
2023/08/12 11:02:37;;;;;;;4.95;1.20;;;;;;;21.49;100.00;101359.94;5049269;28;20036;-67
2023/08/12 11:05:06;;;;;;;4.00;1.50;;;;;;;21.56;100.00;101371.31;5037394;28;20473;-67
2023/08/12 11:07:51;;;;;;;1.83;1.10;;;;;;;21.56;100.00;101366.94;5049141;28;20117;-67